Time;durP1;ratioP1;P1;durP2;ratioP2;P2;SDS_P1;SDS_P2;PMS_P1;PMS_P2;Temp;Humidity;BMP_temperature;BMP_pressure;BME280_temperature;BME280_humidity;BME280_pressure;Samples;Min_cycle;Max_cycle;Signal;HPM_P1;HPM_P2
2021/07/19 00:01:57;;;;;;;2.90;1.70;;;;;;;;;;4501955;28;20133;-64
2021/07/19 00:04:08;;;;;;;2.73;1.87;;;;;;;;;;4523877;28;20034;-63
2021/07/19 00:06:18;;;;;;;3.07;1.77;;;;;;;;;;4523504;28;20145;-64
2021/07/19 00:08:29;;;;;;;2.87;1.67;;;;;;;;;;4523085;28;20076;-63
2021/07/19 00:10:39;;;;;;;2.67;1.70;;;;;;;;;;4504691;28;20326;-63
2021/07/19 00:12:50;;;;;;;2.47;1.60;;;;;;;;;;4508485;28;20041;-63
2021/07/19 00:15:02;;;;;;;2.00;1.55;;;;;;;;;;4523496;28;20068;-63
2021/07/19 00:17:13;;;;;;;3.00;1.48;;;;;;;;;;4522989;28;20030;-63
2021/07/19 00:19:24;;;;;;;2.30;1.63;;;;;;;;;;4523111;28;20036;-64
2021/07/19 00:21:34;;;;;;;3.20;1.87;;;;;;;;;;4499717;28;20049;-63
2021/07/19 00:23:45;;;;;;;4.10;1.70;;;;;;;;;;4523084;28;20064;-63
2021/07/19 00:25:55;;;;;;;2.87;1.70;;;;;;;;;;4504841;28;20057;-64
2021/07/19 00:28:06;;;;;;;2.13;1.67;;;;;;;;;;4489733;28;20056;-63
2021/07/19 00:30:16;;;;;;;2.77;1.60;;;;;;;;;;4504603;28;20438;-64
2021/07/19 00:32:27;;;;;;;3.57;1.90;;;;;;;;;;4505052;28;20033;-65
2021/07/19 00:34:37;;;;;;;3.83;1.90;;;;;;;;;;4522283;28;20033;-64
2021/07/19 00:36:50;;;;;;;2.80;1.90;;;;;;;;;;4522988;28;20272;-64
2021/07/19 00:39:02;;;;;;;4.18;1.95;;;;;;;;;;4498091;28;20032;-64
2021/07/19 00:41:13;;;;;;;4.07;2.00;;;;;;;;;;4505784;28;20639;-64
2021/07/19 00:43:23;;;;;;;3.50;2.30;;;;;;;;;;4522584;28;20034;-64
2021/07/19 00:45:35;;;;;;;3.23;2.10;;;;;;;;;;4522709;28;20099;-64
2021/07/19 00:47:49;;;;;;;3.47;2.30;;;;;;;;;;4522578;28;20091;-64
2021/07/19 00:50:00;;;;;;;3.28;2.03;;;;;;;;;;4499999;28;20874;-64
2021/07/19 00:52:11;;;;;;;2.57;2.13;;;;;;;;;;4489546;28;20033;-63
2021/07/19 00:54:22;;;;;;;3.95;2.13;;;;;;;;;;4522749;28;20921;-64
2021/07/19 00:56:33;;;;;;;2.95;2.30;;;;;;;;;;4487792;28;20145;-64
2021/07/19 00:58:48;;;;;;;3.40;2.10;;;;;;;;;;4498571;28;20162;-64
2021/07/19 01:00:59;;;;;;;3.13;2.05;;;;;;;;;;4506021;28;20576;-64
2021/07/19 01:03:11;;;;;;;2.70;2.20;;;;;;;;;;4488042;28;20755;-64
2021/07/19 01:05:21;;;;;;;;;;;;;;;;;;4522455;28;20110;-64
2021/07/19 01:07:34;;;;;;;3.50;2.00;;;;;;;;;;4504779;28;19917;-64
2021/07/19 01:09:45;;;;;;;2.63;2.03;;;;;;;;;;4505641;28;20046;-64
2021/07/19 01:11:58;;;;;;;3.67;2.40;;;;;;;;;;4503698;28;20030;-64
2021/07/19 01:14:09;;;;;;;3.03;2.00;;;;;;;;;;4521953;28;20316;-64
2021/07/19 01:16:22;;;;;;;3.58;2.30;;;;;;;;;;4521980;28;20068;-64
2021/07/19 01:18:34;;;;;;;3.13;2.10;;;;;;;;;;4505695;28;20034;-64
2021/07/19 01:20:59;;;;;;;3.13;1.93;;;;;;;;;;4522063;28;20955;-64
2021/07/19 01:23:29;;;;;;;2.75;2.10;;;;;;;;;;4521362;28;20148;-64
2021/07/19 01:25:46;;;;;;;3.10;2.03;;;;;;;;;;4522082;28;20289;-64
2021/07/19 01:28:14;;;;;;;2.53;2.00;;;;;;;;;;4521480;28;20091;-64
2021/07/19 01:30:27;;;;;;;3.30;2.25;;;;;;;;;;4522245;28;20478;-64
2021/07/19 01:32:42;;;;;;;3.13;2.15;;;;;;;;;;4519723;28;20652;-64
2021/07/19 01:34:54;;;;;;;3.20;2.17;;;;;;;;;;4520699;28;20599;-64
2021/07/19 01:37:06;;;;;;;2.55;2.08;;;;;;;;;;4521875;28;20044;-64
2021/07/19 01:39:31;;;;;;;4.25;2.50;;;;;;;;;;4507218;28;20033;-63
2021/07/19 01:41:47;;;;;;;2.72;2.17;;;;;;;;;;4521955;28;21106;-64
2021/07/19 01:43:59;;;;;;;3.58;2.17;;;;;;;;;;4497717;28;20574;-64
2021/07/19 01:46:10;;;;;;;3.78;2.08;;;;;;;;;;4486429;28;20054;-64
2021/07/19 01:48:21;;;;;;;3.20;2.30;;;;;;;;;;4521925;28;20064;-63
2021/07/19 01:50:34;;;;;;;3.38;2.40;;;;;;;;;;4499215;28;20034;-64
2021/07/19 01:53:11;;;;;;;3.13;2.20;;;;;;;;;;4498621;28;20045;-64
2021/07/19 01:55:24;;;;;;;3.45;2.47;;;;;;;;;;4520566;28;20670;-64
2021/07/19 01:57:36;;;;;;;3.35;2.10;;;;;;;;;;4505384;28;20029;-64
2021/07/19 01:59:47;;;;;;;4.23;2.50;;;;;;;;;;4487032;28;20038;-64
2021/07/19 02:02:05;;;;;;;3.38;2.40;;;;;;;;;;4503857;28;20026;-64
2021/07/19 02:04:16;;;;;;;3.88;2.50;;;;;;;;;;4494937;28;20038;-64
2021/07/19 02:06:27;;;;;;;3.58;2.35;;;;;;;;;;4502355;28;20582;-64
2021/07/19 02:08:53;;;;;;;3.30;2.30;;;;;;;;;;4481644;28;20537;-64
2021/07/19 02:11:06;;;;;;;3.75;2.45;;;;;;;;;;4490433;28;20569;-64
2021/07/19 02:13:19;;;;;;;4.28;2.63;;;;;;;;;;4503519;28;20029;-64
2021/07/19 02:15:31;;;;;;;3.30;2.22;;;;;;;;;;4522075;28;20061;-64
2021/07/19 02:17:46;;;;;;;3.45;2.33;;;;;;;;;;4521171;28;20471;-64
2021/07/19 02:19:57;;;;;;;3.20;2.28;;;;;;;;;;4470664;28;20042;-64
2021/07/19 02:22:11;;;;;;;3.63;2.28;;;;;;;;;;4501484;28;20038;-64
2021/07/19 02:24:33;;;;;;;2.47;2.10;;;;;;;;;;4489809;28;20026;-64
2021/07/19 02:26:57;;;;;;;3.47;2.47;;;;;;;;;;4502221;28;20663;-64
2021/07/19 02:29:08;;;;;;;3.50;2.30;;;;;;;;;;4486707;28;20074;-64
2021/07/19 02:31:20;;;;;;;2.88;2.13;;;;;;;;;;4503577;28;20041;-64
2021/07/19 02:33:33;;;;;;;2.95;2.08;;;;;;;;;;4501693;28;20083;-64
2021/07/19 02:35:45;;;;;;;3.83;2.30;;;;;;;;;;4502626;28;20075;-64
2021/07/19 02:38:01;;;;;;;3.50;2.30;;;;;;;;;;4519455;28;20508;-63
2021/07/19 02:40:20;;;;;;;3.60;2.30;;;;;;;;;;4519643;28;20104;-64
2021/07/19 02:42:33;;;;;;;3.30;2.20;;;;;;;;;;4520779;28;20623;-64
2021/07/19 02:44:43;;;;;;;3.63;2.50;;;;;;;;;;4520595;28;20045;-64
2021/07/19 02:47:04;;;;;;;3.55;2.33;;;;;;;;;;4502937;28;20096;-64
2021/07/19 02:49:15;;;;;;;3.67;2.42;;;;;;;;;;4485777;28;20046;-64
2021/07/19 02:51:29;;;;;;;3.08;2.22;;;;;;;;;;4471135;28;20126;-64
2021/07/19 02:53:55;;;;;;;3.20;2.30;;;;;;;;;;4507036;28;20123;-65
2021/07/19 02:56:07;;;;;;;4.63;2.50;;;;;;;;;;4505764;28;20025;-64
2021/07/19 02:58:18;;;;;;;2.63;2.00;;;;;;;;;;4508158;28;20049;-64
2021/07/19 03:00:29;;;;;;;3.50;2.40;;;;;;;;;;4499069;28;20109;-64
2021/07/19 03:02:46;;;;;;;2.92;2.15;;;;;;;;;;4523775;28;20118;-64
2021/07/19 03:04:57;;;;;;;3.65;2.38;;;;;;;;;;4510307;28;20045;-64
2021/07/19 03:07:09;;;;;;;3.28;2.40;;;;;;;;;;4505952;28;20175;-64
2021/07/19 03:09:21;;;;;;;3.60;2.50;;;;;;;;;;4507319;28;20501;-64
2021/07/19 03:11:42;;;;;;;3.05;2.38;;;;;;;;;;4524192;28;20525;-64
2021/07/19 03:13:59;;;;;;;3.25;2.42;;;;;;;;;;4504697;28;20620;-64
2021/07/19 03:16:11;;;;;;;3.38;2.42;;;;;;;;;;4492446;28;20084;-64
2021/07/19 03:18:23;;;;;;;3.22;2.25;;;;;;;;;;4505313;28;20088;-64
2021/07/19 03:20:36;;;;;;;3.63;2.60;;;;;;;;;;4505996;28;20040;-64
2021/07/19 03:22:52;;;;;;;3.60;2.53;;;;;;;;;;4506084;28;20045;-64
2021/07/19 03:25:26;;;;;;;3.15;2.42;;;;;;;;;;4505565;28;21206;-64
2021/07/19 03:27:38;;;;;;;3.95;2.70;;;;;;;;;;4507603;28;20116;-64
2021/07/19 03:29:49;;;;;;;4.40;2.60;;;;;;;;;;4522008;28;20157;-64
2021/07/19 03:32:04;;;;;;;3.70;2.80;;;;;;;;;;4506103;28;20642;-64
2021/07/19 03:34:17;;;;;;;3.83;2.47;;;;;;;;;;4506351;28;20108;-64
2021/07/19 03:36:30;;;;;;;3.92;2.42;;;;;;;;;;4490783;28;20038;-64
2021/07/19 03:38:42;;;;;;;3.60;2.58;;;;;;;;;;4504779;28;20033;-64
2021/07/19 03:41:19;;;;;;;3.92;2.40;;;;;;;;;;4500714;28;20088;-64
2021/07/19 03:43:33;;;;;;;3.97;2.40;;;;;;;;;;4506543;28;20029;-64
2021/07/19 03:45:45;;;;;;;3.55;2.17;;;;;;;;;;4503060;28;20033;-65
2021/07/19 03:47:57;;;;;;;3.63;2.42;;;;;;;;;;4500004;28;20824;-64
2021/07/19 03:50:10;;;;;;;3.08;2.35;;;;;;;;;;4500288;28;20030;-64
2021/07/19 03:52:26;;;;;;;4.15;2.85;;;;;;;;;;4506831;28;20040;-64
2021/07/19 03:54:38;;;;;;;3.60;2.33;;;;;;;;;;4523581;28;20107;-63
2021/07/19 03:56:50;;;;;;;5.78;2.55;;;;;;;;;;4505784;28;20030;-64
2021/07/19 03:59:02;;;;;;;3.72;2.38;;;;;;;;;;4499067;28;20038;-64
2021/07/19 04:01:15;;;;;;;3.75;2.45;;;;;;;;;;4493666;28;20041;-63
2021/07/19 04:03:28;;;;;;;4.45;2.95;;;;;;;;;;4494939;28;20465;-64
2021/07/19 04:05:41;;;;;;;3.60;2.47;;;;;;;;;;4506091;28;20053;-64
2021/07/19 04:07:58;;;;;;;3.50;2.33;;;;;;;;;;4503687;28;20100;-64
2021/07/19 04:10:11;;;;;;;3.83;2.65;;;;;;;;;;4502983;28;20064;-64
2021/07/19 04:12:47;;;;;;;3.75;2.22;;;;;;;;;;4521957;28;20056;-64
2021/07/19 04:15:01;;;;;;;3.42;2.38;;;;;;;;;;4509669;28;20113;-64
2021/07/19 04:17:11;;;;;;;3.50;2.50;;;;;;;;;;4506677;28;20038;-64
2021/07/19 04:19:23;;;;;;;3.08;2.40;;;;;;;;;;4505637;28;20034;-62
2021/07/19 04:21:34;;;;;;;3.20;2.30;;;;;;;;;;4521795;28;20033;-64
2021/07/19 04:23:45;;;;;;;4.17;2.53;;;;;;;;;;4502508;28;20046;-64
2021/07/19 04:26:01;;;;;;;3.40;2.50;;;;;;;;;;4502413;28;21104;-64
2021/07/19 04:28:18;;;;;;;3.42;2.35;;;;;;;;;;4486678;28;20125;-64
2021/07/19 04:30:36;;;;;;;2.95;2.10;;;;;;;;;;4486507;28;20035;-64
2021/07/19 04:32:48;;;;;;;4.20;2.58;;;;;;;;;;4520813;28;20114;-64
2021/07/19 04:34:59;;;;;;;6.85;2.60;;;;;;;;;;4522295;28;20088;-64
2021/07/19 04:37:09;;;;;;;3.30;2.20;;;;;;;;;;4489810;28;20101;-64
2021/07/19 04:39:28;;;;;;;4.40;2.63;;;;;;;;;;4522061;28;20291;-64
2021/07/19 04:41:39;;;;;;;3.70;2.35;;;;;;;;;;4521910;28;20091;-64
2021/07/19 04:43:49;;;;;;;4.83;2.33;;;;;;;;;;4521522;28;20478;-64
2021/07/19 04:46:00;;;;;;;4.53;2.13;;;;;;;;;;4502539;28;20550;-63
2021/07/19 04:48:11;;;;;;;5.27;2.93;;;;;;;;;;4506381;28;20074;-63
2021/07/19 04:50:21;;;;;;;2.83;2.35;;;;;;;;;;4521927;28;20037;-64
2021/07/19 04:52:51;;;;;;;5.07;2.90;;;;;;;;;;4508536;28;21427;-64
2021/07/19 04:55:03;;;;;;;6.87;3.13;;;;;;;;;;4521611;28;20103;-64
2021/07/19 04:57:14;;;;;;;5.30;2.60;;;;;;;;;;4497183;28;20038;-64
2021/07/19 04:59:28;;;;;;;5.47;2.83;;;;;;;;;;4522529;28;20044;-64
2021/07/19 05:01:39;;;;;;;4.70;2.75;;;;;;;;;;4504131;28;20069;-64
2021/07/19 05:03:51;;;;;;;6.13;2.88;;;;;;;;;;4487908;28;20082;-64
2021/07/19 05:06:02;;;;;;;5.45;3.03;;;;;;;;;;4504496;28;20165;-63
2021/07/19 05:08:13;;;;;;;;;;;;;;;;;;4487372;28;20044;-63
2021/07/19 05:10:26;;;;;;;4.67;3.00;;;;;;;;;;4488064;28;19918;-64
2021/07/19 05:12:37;;;;;;;4.80;2.90;;;;;;;;;;4522765;28;20034;-64
2021/07/19 05:14:48;;;;;;;5.85;3.20;;;;;;;;;;4504485;28;20045;-64
2021/07/19 05:17:01;;;;;;;5.13;3.65;;;;;;;;;;4498625;28;20450;-64
2021/07/19 05:19:12;;;;;;;4.90;3.35;;;;;;;;;;4498799;28;20094;-64
2021/07/19 05:21:22;;;;;;;5.33;3.40;;;;;;;;;;4504253;28;20116;-64
2021/07/19 05:23:33;;;;;;;5.13;3.40;;;;;;;;;;4521711;28;20048;-64
2021/07/19 05:25:43;;;;;;;5.37;3.30;;;;;;;;;;4520272;28;20156;-64
2021/07/19 05:28:06;;;;;;;4.60;3.37;;;;;;;;;;4503398;28;20030;-64
2021/07/19 05:30:16;;;;;;;5.80;3.45;;;;;;;;;;4519929;28;20537;-64
2021/07/19 05:32:27;;;;;;;5.93;3.50;;;;;;;;;;4505418;28;20101;-64
2021/07/19 05:34:37;;;;;;;4.80;3.37;;;;;;;;;;4504255;28;20037;-63
2021/07/19 05:36:48;;;;;;;5.83;3.40;;;;;;;;;;4521613;28;20041;-63
2021/07/19 05:38:58;;;;;;;5.17;3.33;;;;;;;;;;4521255;28;20065;-64
2021/07/19 05:41:10;;;;;;;5.00;3.53;;;;;;;;;;4489633;28;20029;-63
2021/07/19 05:43:20;;;;;;;4.75;3.22;;;;;;;;;;4503433;28;20731;-64
2021/07/19 05:45:32;;;;;;;5.75;3.60;;;;;;;;;;4521644;28;20113;-64
2021/07/19 05:47:43;;;;;;;;;;;;;;;;;;4521994;28;20037;-64
2021/07/19 05:49:53;;;;;;;6.18;4.07;;;;;;;;;;4521833;28;19928;-63
2021/07/19 05:52:03;;;;;;;5.57;3.67;;;;;;;;;;4521365;28;20714;-63
2021/07/19 05:54:14;;;;;;;5.73;3.77;;;;;;;;;;4521680;28;20072;-64
2021/07/19 05:56:24;;;;;;;4.90;3.10;;;;;;;;;;4521817;28;20033;-64
2021/07/19 05:58:35;;;;;;;5.17;3.63;;;;;;;;;;4507340;28;20065;-64
2021/07/19 06:00:46;;;;;;;6.03;3.70;;;;;;;;;;4494479;28;20042;-62
2021/07/19 06:02:57;;;;;;;5.60;3.72;;;;;;;;;;4520903;28;20651;-63
2021/07/19 06:05:08;;;;;;;7.10;3.93;;;;;;;;;;4505424;28;20181;-62
2021/07/19 06:07:18;;;;;;;5.53;3.80;;;;;;;;;;4521632;28;20038;-63
2021/07/19 06:09:28;;;;;;;6.53;4.13;;;;;;;;;;4521330;28;20375;-62
2021/07/19 06:11:39;;;;;;;5.37;3.50;;;;;;;;;;4503908;28;20044;-63
2021/07/19 06:13:50;;;;;;;6.13;3.80;;;;;;;;;;4521177;28;20095;-62
2021/07/19 06:16:00;;;;;;;5.60;4.10;;;;;;;;;;4522223;28;20033;-62
2021/07/19 06:18:11;;;;;;;5.83;3.83;;;;;;;;;;4520464;28;20037;-62
2021/07/19 06:20:28;;;;;;;5.00;3.37;;;;;;;;;;4520763;28;20040;-63
2021/07/19 06:22:40;;;;;;;5.65;3.80;;;;;;;;;;4503452;28;20934;-62
2021/07/19 06:24:51;;;;;;;6.53;3.95;;;;;;;;;;4520409;28;20608;-63
2021/07/19 06:27:02;;;;;;;6.18;4.10;;;;;;;;;;4503672;28;20125;-62
2021/07/19 06:29:13;;;;;;;5.40;3.40;;;;;;;;;;4503363;28;20034;-62
2021/07/19 06:31:23;;;;;;;4.97;3.43;;;;;;;;;;4503126;28;20042;-62
2021/07/19 06:33:34;;;;;;;7.23;3.80;;;;;;;;;;4521390;28;20547;-62
2021/07/19 06:35:44;;;;;;;5.40;3.80;;;;;;;;;;4520969;28;20073;-62
2021/07/19 06:37:55;;;;;;;5.40;3.80;;;;;;;;;;4521554;28;20040;-62
2021/07/19 06:40:07;;;;;;;5.32;3.70;;;;;;;;;;4521349;28;20065;-63
2021/07/19 06:42:19;;;;;;;5.50;4.03;;;;;;;;;;4503057;28;20046;-62
2021/07/19 06:44:30;;;;;;;6.20;3.90;;;;;;;;;;4501349;28;20589;-62
2021/07/19 06:46:40;;;;;;;5.13;3.57;;;;;;;;;;4521674;28;20043;-62
2021/07/19 06:48:50;;;;;;;5.27;3.47;;;;;;;;;;4504855;28;20462;-62
2021/07/19 06:51:01;;;;;;;6.33;3.70;;;;;;;;;;4501776;28;20049;-62
2021/07/19 06:53:12;;;;;;;5.97;3.35;;;;;;;;;;4521089;28;20084;-61
2021/07/19 06:55:22;;;;;;;6.00;3.43;;;;;;;;;;4520884;28;20029;-62
2021/07/19 06:57:33;;;;;;;4.17;2.67;;;;;;;;;;4520903;28;20032;-62
2021/07/19 06:59:43;;;;;;;6.97;3.30;;;;;;;;;;4521072;28;20927;-62
2021/07/19 07:01:54;;;;;;;5.37;2.83;;;;;;;;;;4500559;28;20169;-62
2021/07/19 07:04:04;;;;;;;5.37;3.00;;;;;;;;;;4489711;28;20344;-62
2021/07/19 07:06:15;;;;;;;6.43;3.47;;;;;;;;;;4521034;28;20050;-62
2021/07/19 07:08:25;;;;;;;6.17;3.47;;;;;;;;;;4518670;28;20034;-62
2021/07/19 07:10:36;;;;;;;4.73;3.07;;;;;;;;;;4507517;28;20473;-61
2021/07/19 07:12:46;;;;;;;5.50;3.00;;;;;;;;;;4520704;28;20030;-62
2021/07/19 07:14:57;;;;;;;5.23;3.60;;;;;;;;;;4521158;28;20113;-62
2021/07/19 07:17:07;;;;;;;4.37;3.00;;;;;;;;;;4520510;28;20553;-62
2021/07/19 07:19:18;;;;;;;6.87;3.60;;;;;;;;;;4501844;28;20065;-62
2021/07/19 07:21:30;;;;;;;5.03;3.03;;;;;;;;;;4520990;28;20690;-62
2021/07/19 07:23:40;;;;;;;5.22;3.13;;;;;;;;;;4520315;28;20033;-62
2021/07/19 07:25:51;;;;;;;4.57;2.57;;;;;;;;;;4520772;28;20046;-62
2021/07/19 07:28:01;;;;;;;5.23;3.00;;;;;;;;;;4520471;28;20048;-62
2021/07/19 07:30:12;;;;;;;5.93;3.37;;;;;;;;;;4520682;28;20041;-62
2021/07/19 07:32:22;;;;;;;4.80;2.80;;;;;;;;;;4520250;28;20045;-62
2021/07/19 07:34:33;;;;;;;5.27;3.10;;;;;;;;;;4501919;28;20157;-63
2021/07/19 07:36:43;;;;;;;4.77;2.87;;;;;;;;;;4520631;28;20038;-63
2021/07/19 07:38:53;;;;;;;5.50;3.33;;;;;;;;;;4520467;28;20087;-63
2021/07/19 07:41:04;;;;;;;3.83;2.60;;;;;;;;;;4520471;28;20061;-62
2021/07/19 07:43:14;;;;;;;4.70;3.00;;;;;;;;;;4520974;28;20034;-63
2021/07/19 07:45:25;;;;;;;4.97;3.10;;;;;;;;;;4522950;28;20118;-63
2021/07/19 07:47:36;;;;;;;5.97;3.40;;;;;;;;;;4523730;28;21256;-62
2021/07/19 07:49:48;;;;;;;4.78;2.85;;;;;;;;;;4523676;28;20800;-63
2021/07/19 07:51:59;;;;;;;5.60;2.97;;;;;;;;;;4523564;28;20033;-62
2021/07/19 07:54:09;;;;;;;5.17;2.83;;;;;;;;;;4523421;28;20038;-63
2021/07/19 07:56:20;;;;;;;4.20;2.70;;;;;;;;;;4508352;28;20048;-62
2021/07/19 07:58:30;;;;;;;4.50;2.80;;;;;;;;;;4522770;28;20033;-62
2021/07/19 08:00:41;;;;;;;6.30;3.27;;;;;;;;;;4503899;28;20490;-62
2021/07/19 08:02:51;;;;;;;5.30;3.10;;;;;;;;;;4523201;28;20044;-63
2021/07/19 08:05:02;;;;;;;4.60;2.90;;;;;;;;;;4481055;28;22968;-62
2021/07/19 08:07:12;;;;;;;3.93;2.60;;;;;;;;;;4523044;28;20034;-62
2021/07/19 08:09:23;;;;;;;3.87;2.77;;;;;;;;;;4522435;28;20032;-63
2021/07/19 08:11:33;;;;;;;5.37;3.37;;;;;;;;;;4507793;28;20042;-63
2021/07/19 08:13:44;;;;;;;4.17;2.90;;;;;;;;;;4488723;28;20145;-63
2021/07/19 08:15:54;;;;;;;6.20;3.13;;;;;;;;;;4505036;28;20107;-62
2021/07/19 08:18:05;;;;;;;5.77;3.50;;;;;;;;;;4522408;28;20038;-63
2021/07/19 08:20:17;;;;;;;5.60;2.92;;;;;;;;;;4522870;28;20148;-62
2021/07/19 08:22:28;;;;;;;4.35;3.10;;;;;;;;;;4522758;28;20593;-62
2021/07/19 08:24:38;;;;;;;6.55;3.45;;;;;;;;;;4523075;28;20507;-63
2021/07/19 08:26:49;;;;;;;4.93;3.30;;;;;;;;;;4504751;28;20034;-63
2021/07/19 08:28:59;;;;;;;5.37;3.00;;;;;;;;;;4522971;28;20398;-62
2021/07/19 08:31:10;;;;;;;4.88;3.00;;;;;;;;;;4522666;28;20038;-62
2021/07/19 08:33:20;;;;;;;5.67;3.30;;;;;;;;;;4522907;28;20059;-63
2021/07/19 08:35:31;;;;;;;4.07;2.87;;;;;;;;;;4522481;28;20037;-62
2021/07/19 08:37:46;;;;;;;4.53;2.70;;;;;;;;;;4522044;28;20483;-62
2021/07/19 08:39:56;;;;;;;4.68;3.03;;;;;;;;;;4523041;28;20039;-62
2021/07/19 08:42:13;;;;;;;4.47;2.60;;;;;;;;;;4523008;28;20061;-62
2021/07/19 08:44:24;;;;;;;5.20;2.80;;;;;;;;;;4504989;28;20179;-62
2021/07/19 08:46:35;;;;;;;4.37;2.43;;;;;;;;;;4521869;28;20045;-62
2021/07/19 08:48:51;;;;;;;5.35;2.92;;;;;;;;;;4522318;28;20263;-62
2021/07/19 08:51:02;;;;;;;4.80;3.05;;;;;;;;;;4523038;28;20087;-62
2021/07/19 08:53:13;;;;;;;;;;;;;;;;;;4522692;28;20037;-62
2021/07/19 08:55:23;;;;;;;4.03;2.40;;;;;;;;;;4489557;28;20450;-62
2021/07/19 08:57:34;;;;;;;4.20;2.80;;;;;;;;;;4523224;28;20112;-62
2021/07/19 08:59:46;;;;;;;4.00;2.72;;;;;;;;;;4505213;28;20487;-62
2021/07/19 09:02:00;;;;;;;4.25;2.80;;;;;;;;;;4522983;28;20679;-62
2021/07/19 09:04:12;;;;;;;5.28;2.80;;;;;;;;;;4483522;28;20040;-62
2021/07/19 09:06:22;;;;;;;3.72;2.72;;;;;;;;;;4522695;28;20042;-62
2021/07/19 09:08:33;;;;;;;5.27;2.87;;;;;;;;;;4508083;28;20494;-62
2021/07/19 09:10:43;;;;;;;5.33;3.10;;;;;;;;;;4504371;28;20639;-62
2021/07/19 09:12:58;;;;;;;4.60;2.80;;;;;;;;;;4506484;28;20437;-62
2021/07/19 09:15:11;;;;;;;4.97;3.00;;;;;;;;;;4522390;28;20036;-62
2021/07/19 09:17:26;;;;;;;5.35;3.05;;;;;;;;;;4522588;28;20060;-62
2021/07/19 09:19:41;;;;;;;3.88;2.70;;;;;;;;;;4522526;28;20030;-62
2021/07/19 09:21:58;;;;;;;5.10;3.15;;;;;;;;;;4499294;28;20030;-62
2021/07/19 09:24:12;;;;;;;4.05;2.88;;;;;;;;;;4522496;28;20029;-62
2021/07/19 09:26:30;;;;;;;5.55;3.30;;;;;;;;;;4502321;28;20038;-62
2021/07/19 09:28:40;;;;;;;4.35;3.08;;;;;;;;;;4522591;28;20370;-62
2021/07/19 09:30:51;;;;;;;4.97;3.10;;;;;;;;;;4507010;28;20046;-61
2021/07/19 09:33:07;;;;;;;4.77;3.03;;;;;;;;;;4504392;28;20042;-62
2021/07/19 09:35:17;;;;;;;4.25;3.08;;;;;;;;;;4495976;28;20711;-62
2021/07/19 09:37:28;;;;;;;6.63;3.70;;;;;;;;;;4502548;28;20692;-62
2021/07/19 09:39:43;;;;;;;6.67;3.57;;;;;;;;;;4522399;28;20139;-62
2021/07/19 09:42:09;;;;;;;6.45;3.88;;;;;;;;;;4504225;28;20109;-62
2021/07/19 09:44:23;;;;;;;5.35;3.60;;;;;;;;;;4520870;28;20033;-62
2021/07/19 09:46:34;;;;;;;5.03;3.30;;;;;;;;;;4504574;28;20028;-62
2021/07/19 09:48:44;;;;;;;6.00;3.45;;;;;;;;;;4522201;28;20051;-62
2021/07/19 09:50:55;;;;;;;6.37;3.57;;;;;;;;;;4522411;28;20037;-61
2021/07/19 09:53:06;;;;;;;5.33;3.30;;;;;;;;;;4502953;28;20229;-62
2021/07/19 09:55:24;;;;;;;5.07;3.30;;;;;;;;;;4520709;28;20505;-62
2021/07/19 09:57:34;;;;;;;5.25;3.17;;;;;;;;;;4522262;28;20041;-62
2021/07/19 09:59:53;;;;;;;5.60;3.63;;;;;;;;;;4522426;28;20041;-62
2021/07/19 10:02:03;;;;;;;4.13;2.90;;;;;;;;;;4522086;28;20189;-62
2021/07/19 10:04:17;;;;;;;4.77;2.90;;;;;;;;;;4522218;28;20129;-61
2021/07/19 10:06:29;;;;;;;5.25;3.22;;;;;;;;;;4503129;28;20056;-62
2021/07/19 10:08:39;;;;;;;5.10;3.17;;;;;;;;;;4503540;28;21054;-62
2021/07/19 10:10:50;;;;;;;5.60;2.90;;;;;;;;;;4503435;28;20095;-61
2021/07/19 10:13:03;;;;;;;4.88;3.10;;;;;;;;;;4522048;28;20105;-62
2021/07/19 10:15:16;;;;;;;4.72;2.78;;;;;;;;;;4522370;28;20104;-62
2021/07/19 10:17:27;;;;;;;4.82;3.00;;;;;;;;;;4505494;28;20042;-61
2021/07/19 10:19:40;;;;;;;4.65;3.10;;;;;;;;;;4503512;28;29347;-62
2021/07/19 10:21:51;;;;;;;4.30;2.90;;;;;;;;;;4521476;28;20084;-61
2021/07/19 10:24:04;;;;;;;4.30;2.93;;;;;;;;;;4504340;28;20100;-62
2021/07/19 10:26:16;;;;;;;5.45;3.15;;;;;;;;;;4521754;28;20351;-62
2021/07/19 10:28:27;;;;;;;4.90;2.80;;;;;;;;;;4503700;28;21836;-61
2021/07/19 10:30:37;;;;;;;3.90;2.65;;;;;;;;;;4522033;28;20053;-62
2021/07/19 10:32:48;;;;;;;3.73;2.60;;;;;;;;;;4505444;28;20136;-62
2021/07/19 10:34:59;;;;;;;5.88;3.30;;;;;;;;;;4504350;28;20025;-62
2021/07/19 10:37:14;;;;;;;4.53;3.00;;;;;;;;;;4502894;28;20034;-62
2021/07/19 10:39:31;;;;;;;4.32;2.80;;;;;;;;;;4520288;28;20032;-63
2021/07/19 10:41:41;;;;;;;5.22;3.00;;;;;;;;;;4503475;28;20607;-61
2021/07/19 10:44:09;;;;;;;3.80;2.43;;;;;;;;;;4487659;28;20034;-62
2021/07/19 10:46:25;;;;;;;5.22;2.47;;;;;;;;;;4521623;28;20774;-62
2021/07/19 10:48:36;;;;;;;4.50;2.60;;;;;;;;;;4521513;28;20824;-62
2021/07/19 10:50:47;;;;;;;5.03;2.47;;;;;;;;;;4521801;28;20099;-63
2021/07/19 10:53:01;;;;;;;3.60;2.60;;;;;;;;;;4521553;28;20081;-62
2021/07/19 10:55:24;;;;;;;6.35;2.85;;;;;;;;;;4521070;28;20099;-62
2021/07/19 10:57:38;;;;;;;4.22;2.50;;;;;;;;;;4521696;28;20821;-61
2021/07/19 11:00:23;;;;;;;5.90;2.83;;;;;;;;;;4521215;28;20041;-61
2021/07/19 11:02:33;;;;;;;4.55;2.45;;;;;;;;;;4521861;28;20828;-61
2021/07/19 11:04:46;;;;;;;4.80;2.77;;;;;;;;;;4502633;28;20034;-61
2021/07/19 11:06:59;;;;;;;6.03;2.85;;;;;;;;;;4521357;28;20678;-62
2021/07/19 11:09:09;;;;;;;4.78;2.40;;;;;;;;;;4496846;28;20045;-61
2021/07/19 11:11:28;;;;;;;4.00;2.70;;;;;;;;;;4521494;28;20038;-61
2021/07/19 11:13:38;;;;;;;4.78;2.35;;;;;;;;;;4519933;28;20041;-62
2021/07/19 11:15:51;;;;;;;4.33;2.87;;;;;;;;;;4521391;28;20029;-62
2021/07/19 11:18:26;;;;;;;4.93;2.85;;;;;;;;;;4522137;28;20036;-61
2021/07/19 11:20:41;;;;;;;4.82;2.63;;;;;;;;;;4524876;28;20029;-61
2021/07/19 11:23:00;;;;;;;3.85;2.47;;;;;;;;;;4498308;28;20704;-62
2021/07/19 11:25:13;;;;;;;4.90;2.63;;;;;;;;;;4524397;28;20041;-61
2021/07/19 11:27:32;;;;;;;4.45;2.65;;;;;;;;;;4504791;28;20174;-60
2021/07/19 11:29:43;;;;;;;4.82;2.92;;;;;;;;;;4505482;28;20034;-60
2021/07/19 11:32:18;;;;;;;5.90;3.40;;;;;;;;;;4524121;28;20033;-61
2021/07/19 11:34:28;;;;;;;5.05;2.85;;;;;;;;;;4524308;28;20567;-60
2021/07/19 11:36:47;;;;;;;3.87;2.33;;;;;;;;;;4524199;28;20077;-62
2021/07/19 11:39:00;;;;;;;4.57;2.78;;;;;;;;;;4522504;28;20041;-61
2021/07/19 11:41:24;;;;;;;5.03;2.75;;;;;;;;;;4524151;28;20033;-62
2021/07/19 11:43:39;;;;;;;4.88;2.92;;;;;;;;;;4496206;28;20625;-61
2021/07/19 11:45:50;;;;;;;4.97;2.95;;;;;;;;;;4524222;28;20308;-61
2021/07/19 11:48:05;;;;;;;4.78;2.92;;;;;;;;;;4509340;28;20037;-61
2021/07/19 11:50:21;;;;;;;4.10;2.88;;;;;;;;;;4507116;28;20137;-62
2021/07/19 11:52:31;;;;;;;5.90;3.40;;;;;;;;;;4521266;28;20033;-61
2021/07/19 11:54:50;;;;;;;5.83;3.60;;;;;;;;;;4522276;28;20468;-61
2021/07/19 11:57:01;;;;;;;5.70;3.58;;;;;;;;;;4507922;28;20882;-61
2021/07/19 11:59:11;;;;;;;4.97;3.00;;;;;;;;;;4525069;28;20042;-60
2021/07/19 12:01:28;;;;;;;5.70;3.60;;;;;;;;;;4524873;28;20103;-60
2021/07/19 12:03:39;;;;;;;5.70;3.33;;;;;;;;;;4522467;28;20073;-60
2021/07/19 12:05:51;;;;;;;4.43;3.20;;;;;;;;;;4524452;28;20144;-62
2021/07/19 12:08:08;;;;;;;5.93;3.50;;;;;;;;;;4505133;28;20038;-61
2021/07/19 12:10:20;;;;;;;5.35;3.60;;;;;;;;;;4507603;28;20095;-61
2021/07/19 12:12:31;;;;;;;6.03;3.65;;;;;;;;;;4522838;28;20140;-61
2021/07/19 12:14:41;;;;;;;5.10;3.20;;;;;;;;;;4522951;28;20504;-61
2021/07/19 12:16:51;;;;;;;5.00;3.17;;;;;;;;;;4523507;28;20040;-61
2021/07/19 12:19:04;;;;;;;5.30;3.50;;;;;;;;;;4522696;28;20081;-62
2021/07/19 12:21:23;;;;;;;5.93;3.67;;;;;;;;;;4505492;28;21394;-62
2021/07/19 12:23:53;;;;;;;5.15;3.42;;;;;;;;;;4523380;28;20040;-62
2021/07/19 12:26:04;;;;;;;6.85;3.72;;;;;;;;;;4505020;28;20046;-61
2021/07/19 12:28:16;;;;;;;6.32;4.00;;;;;;;;;;4505432;28;20026;-60
2021/07/19 12:30:26;;;;;;;;;;;;;;;;;;4522563;28;20036;-61
2021/07/19 12:32:39;;;;;;;5.30;3.47;;;;;;;;;;4505218;28;20468;-62
2021/07/19 12:34:50;;;;;;;5.35;3.65;;;;;;;;;;4523207;28;20129;-61
2021/07/19 12:37:03;;;;;;;5.87;4.00;;;;;;;;;;4523033;28;20028;-61
2021/07/19 12:39:15;;;;;;;6.22;3.88;;;;;;;;;;4522581;28;20045;-61
2021/07/19 12:41:25;;;;;;;6.72;4.20;;;;;;;;;;4503906;28;20034;-61
2021/07/19 12:43:36;;;;;;;5.73;3.60;;;;;;;;;;4524969;28;20120;-61
2021/07/19 12:45:46;;;;;;;6.30;3.53;;;;;;;;;;4524711;28;20049;-61
2021/07/19 12:47:57;;;;;;;5.77;3.63;;;;;;;;;;4500048;28;20181;-61
2021/07/19 12:50:08;;;;;;;6.70;3.97;;;;;;;;;;4504926;28;20034;-61
2021/07/19 12:52:28;;;;;;;5.65;3.72;;;;;;;;;;4504869;28;20034;-61
2021/07/19 12:54:40;;;;;;;5.07;3.63;;;;;;;;;;4522527;28;20026;-62
2021/07/19 12:56:50;;;;;;;5.80;3.65;;;;;;;;;;4506474;28;20744;-61
2021/07/19 12:59:04;;;;;;;6.32;4.00;;;;;;;;;;4489886;28;20142;-61
2021/07/19 13:01:14;;;;;;;5.68;3.75;;;;;;;;;;4522468;28;20132;-61
2021/07/19 13:03:28;;;;;;;6.87;3.93;;;;;;;;;;4522226;28;20041;-61
2021/07/19 13:05:48;;;;;;;6.30;3.83;;;;;;;;;;4503531;28;20088;-61
2021/07/19 13:07:59;;;;;;;6.20;4.03;;;;;;;;;;4505664;28;20043;-62
2021/07/19 13:10:12;;;;;;;6.83;4.00;;;;;;;;;;4520111;28;20040;-62
2021/07/19 13:12:23;;;;;;;5.10;3.30;;;;;;;;;;4500679;28;20030;-62
2021/07/19 13:14:41;;;;;;;6.37;3.87;;;;;;;;;;4521542;28;20038;-60
2021/07/19 13:17:01;;;;;;;6.28;3.83;;;;;;;;;;4521381;28;20124;-61
2021/07/19 13:19:13;;;;;;;6.18;3.58;;;;;;;;;;4504190;28;20076;-61
2021/07/19 13:21:25;;;;;;;4.68;3.42;;;;;;;;;;4500490;28;20632;-62